createdAt,value
2022-09-05T00:02:03.496Z,11.90
2022-09-05T00:04:49.019Z,10.75
2022-09-05T00:07:59.677Z,9.77
2022-09-05T00:11:12.736Z,8.52
2022-09-05T00:13:44.941Z,7.95
2022-09-05T00:16:40.452Z,6.95
2022-09-05T00:24:20.641Z,7.15
2022-09-05T00:24:36.937Z,5.55
2022-09-05T00:26:04.338Z,7.53
2022-09-05T00:28:53.464Z,5.53
2022-09-05T00:31:53.834Z,6.55
2022-09-05T00:34:54.231Z,6.13
2022-09-05T00:37:35.584Z,5.18
2022-09-05T00:40:33.726Z,5.38
2022-09-05T00:43:24.131Z,4.82
2022-09-05T00:45:55.052Z,6.25
2022-09-05T00:48:47.372Z,4.65
2022-09-05T00:51:28.594Z,4.25
2022-09-05T00:54:15.814Z,4.72
2022-09-05T00:57:03.967Z,4.13
2022-09-05T01:00:14.930Z,4.30
2022-09-05T01:03:22.300Z,4.53
2022-09-05T01:05:58.440Z,4.18
2022-09-05T01:08:47.482Z,4.63
2022-09-05T01:11:27.786Z,4.65
2022-09-05T01:14:18.830Z,5.45
2022-09-05T01:17:04.762Z,4.70
2022-09-05T01:20:04.777Z,4.50
2022-09-05T01:23:08.737Z,5.00
2022-09-05T01:26:00.185Z,4.63
2022-09-05T01:29:17.314Z,4.75
2022-09-05T01:32:01.527Z,6.82
2022-09-05T01:34:57.767Z,4.75
2022-09-05T01:37:49.249Z,4.63
2022-09-05T01:40:43.553Z,4.93
2022-09-05T01:43:41.221Z,5.60
2022-09-05T01:46:36.172Z,5.10
2022-09-05T01:49:05.625Z,5.03
2022-09-05T01:52:08.154Z,4.55
2022-09-05T01:54:56.045Z,4.60
2022-09-05T01:57:38.627Z,5.32
2022-09-05T02:04:40.559Z,6.22
2022-09-05T02:07:40.667Z,5.15
2022-09-05T02:10:22.607Z,7.30
2022-09-05T02:13:03.106Z,5.50
2022-09-05T02:16:08.733Z,5.35
2022-09-05T02:18:58.542Z,5.20
2022-09-05T02:21:58.356Z,4.70
2022-09-05T02:24:37.711Z,5.57
2022-09-05T02:28:03.768Z,6.00
2022-09-05T02:30:23.422Z,5.20
2022-09-05T02:33:10.974Z,7.00
2022-09-05T02:35:54.801Z,5.60
2022-09-05T02:41:32.038Z,5.00
2022-09-05T02:45:10.981Z,5.55
2022-09-05T02:45:17.796Z,5.25
2022-09-05T02:48:12.705Z,4.95
2022-09-05T02:57:30.442Z,5.15
2022-09-05T02:57:33.107Z,5.13
2022-09-05T02:57:40.791Z,4.80
2022-09-05T03:00:01.757Z,6.20
2022-09-05T03:02:42.684Z,5.40
2022-09-05T03:05:19.459Z,6.15
2022-09-05T03:07:54.301Z,5.82
2022-09-05T03:10:53.195Z,5.28
2022-09-05T03:13:36.531Z,6.03
2022-09-05T03:16:52.055Z,6.05
2022-09-05T03:19:20.139Z,5.05
2022-09-05T03:22:10.677Z,5.60
2022-09-05T03:25:01.898Z,5.30
2022-09-05T03:28:08.394Z,11.30
2022-09-05T03:33:37.103Z,6.70
2022-09-05T03:36:30.806Z,5.80
2022-09-05T03:39:09.074Z,7.25
2022-09-05T03:41:55.513Z,5.53
2022-09-05T06:09:48.008Z,6.95
2022-09-05T06:16:32.513Z,10.55
2022-09-05T06:41:38.501Z,10.02
2022-09-05T06:47:56.907Z,8.70
2022-09-05T06:51:08.369Z,8.60
2022-09-05T06:54:13.027Z,12.40
2022-09-05T06:57:00.975Z,10.70
2022-09-05T06:59:55.100Z,8.68
2022-09-05T07:03:06.549Z,9.32
2022-09-05T07:05:55.654Z,5.50
2022-09-05T07:09:42.350Z,10.45
2022-09-05T07:14:02.535Z,8.88
2022-09-05T07:25:27.408Z,7.10
2022-09-05T07:31:37.648Z,6.63
2022-09-05T07:34:33.109Z,6.90
2022-09-05T07:37:27.426Z,5.35
2022-09-05T07:56:59.519Z,9.50
2022-09-05T07:58:17.392Z,9.10
2022-09-05T08:01:15.518Z,3.70
2022-09-05T08:05:07.618Z,7.65
2022-09-05T08:08:10.720Z,3.97
2022-09-05T08:12:27.661Z,3.50
2022-09-05T08:16:02.895Z,4.00
2022-09-05T08:18:30.059Z,5.82
2022-09-05T08:21:27.134Z,3.28
2022-09-05T08:24:49.628Z,4.18
2022-09-05T08:27:45.481Z,3.17
2022-09-05T08:30:26.852Z,3.83
2022-09-05T08:56:17.005Z,4.07
2022-09-05T09:00:20.782Z,3.58
2022-09-05T09:08:13.223Z,3.72
2022-09-05T09:10:49.331Z,2.92
2022-09-05T10:45:03.762Z,3.97
2022-09-05T10:48:11.506Z,3.53
2022-09-05T10:50:49.607Z,4.63
2022-09-05T10:53:52.003Z,4.30
2022-09-05T10:57:35.680Z,4.38
2022-09-05T11:02:21.202Z,2.90
2022-09-05T11:03:55.840Z,3.53
2022-09-05T11:06:46.275Z,3.25
2022-09-05T11:09:19.604Z,5.85
2022-09-05T11:12:01.170Z,3.20
2022-09-05T11:14:56.462Z,5.70
2022-09-05T11:20:54.149Z,5.50
2022-09-05T11:23:59.470Z,3.50
2022-09-05T11:27:25.101Z,4.13
2022-09-05T11:30:45.548Z,3.70
2022-09-05T11:50:50.570Z,4.13
2022-09-05T11:50:52.676Z,4.63
2022-09-05T12:21:46.968Z,3.97
2022-09-05T12:41:36.240Z,3.55
2022-09-05T12:44:38.039Z,4.63
2022-09-05T12:51:45.123Z,3.95
2022-09-05T12:54:24.816Z,3.05
2022-09-05T13:08:59.405Z,4.60
2022-09-05T13:22:11.829Z,3.33
2022-09-05T13:25:27.250Z,3.88
2022-09-05T13:28:11.876Z,3.47
2022-09-05T13:38:01.630Z,2.60
2022-09-05T13:56:40.301Z,2.60
2022-09-05T14:12:45.722Z,3.25
2022-09-05T14:15:42.970Z,3.63
2022-09-05T14:18:55.538Z,3.88
2022-09-05T14:21:27.883Z,5.30
2022-09-05T14:24:27.463Z,3.20
2022-09-05T14:27:03.118Z,5.68
2022-09-05T14:30:35.566Z,2.67
2022-09-05T14:37:43.566Z,4.63
2022-09-05T14:37:43.958Z,3.15
2022-09-05T14:40:46.361Z,3.42
2022-09-05T14:43:56.239Z,2.75
2022-09-05T14:46:38.703Z,2.58
2022-09-05T14:49:18.580Z,3.08
2022-09-05T14:51:48.542Z,3.88
2022-09-05T14:59:34.011Z,3.60
2022-09-05T15:02:57.900Z,2.33
2022-09-05T15:04:35.397Z,3.67
2022-09-05T15:07:15.946Z,2.28
2022-09-05T15:12:21.379Z,2.20
2022-09-05T15:12:45.924Z,7.13
2022-09-05T15:15:43.438Z,4.95
2022-09-05T15:18:40.413Z,7.05
2022-09-05T15:24:36.900Z,2.30
2022-09-05T15:27:05.495Z,2.88
2022-09-05T15:29:35.383Z,2.80
2022-09-05T15:32:24.960Z,2.97
2022-09-05T15:35:09.275Z,4.30
2022-09-05T15:37:45.150Z,3.05
2022-09-05T15:40:23.106Z,2.95
2022-09-05T15:42:58.994Z,2.42
2022-09-05T15:46:08.490Z,3.50
2022-09-05T15:48:48.347Z,2.33
2022-09-05T15:52:27.298Z,2.95
2022-09-05T15:55:10.667Z,2.58
2022-09-05T15:57:41.374Z,2.92
2022-09-05T16:00:30.860Z,4.13
2022-09-05T16:03:40.956Z,4.72
2022-09-05T16:10:36.715Z,4.15
2022-09-05T16:10:44.907Z,7.80
2022-09-05T16:12:48.312Z,3.72
2022-09-05T16:19:25.019Z,5.95
2022-09-05T16:23:25.480Z,4.07
2022-09-05T16:23:30.259Z,3.38
2022-09-05T16:24:59.465Z,3.90
2022-09-05T16:27:44.262Z,2.33
2022-09-05T16:30:38.230Z,3.60
2022-09-05T16:33:29.666Z,2.85
2022-09-05T16:36:15.998Z,4.22
2022-09-05T16:39:01.537Z,3.85
2022-09-05T16:41:53.500Z,6.07
2022-09-05T16:45:58.692Z,3.33
2022-09-05T16:48:31.487Z,2.92
2022-09-05T16:51:37.975Z,5.75
2022-09-05T16:59:02.562Z,3.33
2022-09-05T17:02:55.765Z,4.78
2022-09-05T17:06:04.626Z,2.30
2022-09-05T17:16:30.748Z,3.97
2022-09-05T17:20:05.667Z,3.00
2022-09-05T17:34:24.627Z,4.93
2022-09-05T17:37:32.514Z,7.15
2022-09-05T19:10:36.907Z,5.82
2022-09-05T20:18:27.191Z,4.75
2022-09-05T21:28:47.271Z,5.38
2022-09-05T22:56:01.747Z,4.90
2022-09-05T23:02:34.179Z,7.40
2022-09-05T23:05:09.236Z,5.40
2022-09-05T23:09:09.560Z,5.25
2022-09-05T23:11:42.151Z,6.00
2022-09-05T23:14:29.525Z,6.82
2022-09-05T23:16:57.596Z,6.40
2022-09-05T23:19:32.466Z,9.80
2022-09-05T23:22:00.405Z,7.45
2022-09-05T23:33:24.267Z,7.68
2022-09-05T23:36:03.849Z,7.57
2022-09-05T23:38:32.386Z,7.65
2022-09-05T23:41:06.097Z,7.25
2022-09-05T23:44:02.007Z,6.43
2022-09-05T23:46:30.130Z,9.07
2022-09-05T23:48:58.549Z,6.50
2022-09-05T23:51:27.461Z,8.65
2022-09-05T23:53:59.836Z,6.13
2022-09-05T23:56:32.327Z,7.65
2022-09-05T23:59:00.428Z,6.88
